Aguilares, Texas
Current Conditions -  °F | °C
As of 3:15 PM on Saturday 22 Nov 2014 (Local Time) from KHBV Reporting Station
Scattered Clouds Scattered Clouds  
Wind Chill: 25°   Ceiling: Unl
Heat Index: 27°   Visibility: 10mi
Dew Point: 18°   Wind: 13mph
Humidity: 65%   Direction: 150°SSE
Pressure: 29.77"   Gusts: 20mph
Location:  27.4459°N, 99.0184°W
Report Text: KHBV 222115Z AUTO 15011G17KT 10SM SCT038 SCT050 26/18 A2977 RMK AO2 T02550184
Loading
Personal Weather Stations






























Interactive Weather Map New forecast layout! Learn more

10-Day Weather Forecast

Advertisements
Track Severe Weather on mobile